createdAt,value
2017-10-19T00:00:15.751Z,1006.66
2017-10-19T00:00:41.903Z,1006.66
2017-10-19T00:01:08.047Z,1006.65
2017-10-19T00:01:34.166Z,1006.62
2017-10-19T00:02:00.295Z,1006.65
2017-10-19T00:02:26.459Z,1006.63
2017-10-19T00:02:52.560Z,1006.67
2017-10-19T00:03:18.679Z,1006.62
2017-10-19T00:03:44.813Z,1006.66
2017-10-19T00:04:10.942Z,1006.61
2017-10-19T00:04:37.102Z,1006.65
2017-10-19T00:05:03.252Z,1006.61
2017-10-19T00:05:29.401Z,1006.65
2017-10-19T00:05:55.523Z,1006.66
2017-10-19T00:06:21.874Z,1006.65
2017-10-19T00:06:47.997Z,1006.65
2017-10-19T00:07:14.125Z,1006.62
2017-10-19T00:07:40.253Z,1006.64
2017-10-19T00:08:06.378Z,1006.64
2017-10-19T00:08:32.503Z,1006.64
2017-10-19T00:08:58.642Z,1006.63
2017-10-19T00:09:24.764Z,1006.66
2017-10-19T00:09:50.898Z,1006.65
2017-10-19T00:10:17.014Z,1006.63
2017-10-19T00:10:43.145Z,1006.62
2017-10-19T00:11:09.284Z,1006.64
2017-10-19T00:11:35.408Z,1006.65
2017-10-19T00:12:01.542Z,1006.61
2017-10-19T00:12:27.665Z,1006.64
2017-10-19T00:12:53.790Z,1006.64
2017-10-19T00:13:19.909Z,1006.64
2017-10-19T00:13:46.034Z,1006.62
2017-10-19T00:14:12.152Z,1006.64
2017-10-19T00:14:38.278Z,1006.65
2017-10-19T00:15:04.477Z,1006.67
2017-10-19T00:15:30.608Z,1006.67
2017-10-19T00:15:56.734Z,1006.64
2017-10-19T00:16:22.867Z,1006.66
2017-10-19T00:16:48.987Z,1006.65
2017-10-19T00:17:15.112Z,1006.67
2017-10-19T00:17:41.258Z,1006.66
2017-10-19T00:18:07.383Z,1006.67
2017-10-19T00:18:33.525Z,1006.68
2017-10-19T00:18:59.647Z,1006.68
2017-10-19T00:19:25.777Z,1006.7
2017-10-19T00:19:51.917Z,1006.7
2017-10-19T00:20:18.043Z,1006.71
2017-10-19T00:20:44.155Z,1006.7
2017-10-19T00:21:10.281Z,1006.75
2017-10-19T00:21:36.408Z,1006.74
2017-10-19T00:22:02.536Z,1006.73
2017-10-19T00:22:28.653Z,1006.75
2017-10-19T00:22:54.782Z,1006.72
2017-10-19T00:23:20.902Z,1006.72
2017-10-19T00:23:47.025Z,1006.76
2017-10-19T00:24:13.148Z,1006.75
2017-10-19T00:24:39.274Z,1006.76
2017-10-19T00:25:05.394Z,1006.79
2017-10-19T00:25:31.516Z,1006.77
2017-10-19T00:25:57.633Z,1006.76
2017-10-19T00:26:23.757Z,1006.8
2017-10-19T00:26:49.884Z,1006.77
2017-10-19T00:27:16.001Z,1006.76
2017-10-19T00:27:42.120Z,1006.77
2017-10-19T00:28:08.249Z,1006.79
2017-10-19T00:28:34.368Z,1006.78
2017-10-19T00:29:00.492Z,1006.8
2017-10-19T00:29:26.627Z,1006.79
2017-10-19T00:29:52.745Z,1006.77
2017-10-19T00:30:18.869Z,1006.79
2017-10-19T00:30:44.991Z,1006.85
2017-10-19T00:31:11.117Z,1006.8
2017-10-19T00:31:37.269Z,1006.8
2017-10-19T00:32:03.359Z,1006.79
2017-10-19T00:32:29.486Z,1006.81
2017-10-19T00:32:55.604Z,1006.81
2017-10-19T00:33:21.724Z,1006.79
2017-10-19T00:33:47.845Z,1006.85
2017-10-19T00:34:13.971Z,1006.77
2017-10-19T00:34:40.095Z,1006.79
2017-10-19T00:35:06.217Z,1006.84
2017-10-19T00:35:32.343Z,1006.82
2017-10-19T00:35:58.466Z,1006.8
2017-10-19T00:36:24.585Z,1006.78
2017-10-19T00:36:50.719Z,1006.81
2017-10-19T00:37:16.833Z,1006.81
2017-10-19T00:37:42.954Z,1006.79
2017-10-19T00:38:09.079Z,1006.8
2017-10-19T00:38:35.197Z,1006.82
2017-10-19T00:39:01.325Z,1006.78
2017-10-19T00:39:27.453Z,1006.83
2017-10-19T00:39:53.567Z,1006.83
2017-10-19T00:40:19.696Z,1006.79
2017-10-19T00:40:45.811Z,1006.74
2017-10-19T00:41:11.933Z,1006.79
2017-10-19T00:41:38.057Z,1006.83
2017-10-19T00:42:04.182Z,1006.8
2017-10-19T00:42:30.305Z,1006.81
2017-10-19T00:42:56.421Z,1006.8
2017-10-19T00:43:22.549Z,1006.81
2017-10-19T00:43:48.673Z,1006.82
2017-10-19T00:44:14.796Z,1006.8
2017-10-19T00:44:40.915Z,1006.82
2017-10-19T00:45:07.042Z,1006.84
2017-10-19T00:45:33.166Z,1006.8
2017-10-19T00:45:59.283Z,1006.82
2017-10-19T00:46:25.410Z,1006.81
2017-10-19T00:46:51.530Z,1006.84
2017-10-19T00:47:17.649Z,1006.84
2017-10-19T00:47:43.770Z,1006.82
2017-10-19T00:48:09.895Z,1006.84
2017-10-19T00:48:36.019Z,1006.81
2017-10-19T00:49:02.139Z,1006.78
2017-10-19T00:49:28.269Z,1006.78
2017-10-19T00:49:54.384Z,1006.8
2017-10-19T00:50:20.509Z,1006.79
2017-10-19T00:50:46.627Z,1006.78
2017-10-19T00:51:12.754Z,1006.79
2017-10-19T00:51:38.881Z,1006.77
2017-10-19T00:52:05.003Z,1006.8
2017-10-19T00:52:31.127Z,1006.77
2017-10-19T00:52:57.238Z,1006.77
2017-10-19T00:53:23.387Z,1006.8
2017-10-19T00:53:49.503Z,1006.76
2017-10-19T00:54:15.633Z,1006.8
2017-10-19T00:54:41.753Z,1006.79
2017-10-19T00:55:07.874Z,1006.8
2017-10-19T00:55:34.002Z,1006.81
2017-10-19T00:56:00.118Z,1006.8
2017-10-19T00:56:26.245Z,1006.79
2017-10-19T00:56:52.363Z,1006.79
2017-10-19T00:57:18.494Z,1006.79
2017-10-19T00:57:44.618Z,1006.79
2017-10-19T00:58:10.740Z,1006.78
2017-10-19T00:58:36.859Z,1006.76
2017-10-19T00:59:02.984Z,1006.78
2017-10-19T00:59:29.108Z,1006.76
2017-10-19T00:59:55.233Z,1006.76
2017-10-19T01:00:21.350Z,1006.78
2017-10-19T01:00:47.479Z,1006.76
2017-10-19T01:01:13.594Z,1006.75
2017-10-19T01:01:39.721Z,1006.72
2017-10-19T01:02:05.846Z,1006.75
2017-10-19T01:02:31.967Z,1006.74
2017-10-19T01:02:58.089Z,1006.72
2017-10-19T01:03:24.213Z,1006.74
2017-10-19T01:03:50.328Z,1006.79
2017-10-19T01:04:16.455Z,1006.75
2017-10-19T01:04:42.579Z,1006.75
2017-10-19T01:05:08.696Z,1006.8
2017-10-19T01:05:34.822Z,1006.76
2017-10-19T01:06:00.940Z,1006.79
2017-10-19T01:06:27.059Z,1006.78
2017-10-19T01:06:53.186Z,1006.78
2017-10-19T01:07:19.305Z,1006.82
2017-10-19T01:07:45.432Z,1006.82
2017-10-19T01:08:11.556Z,1006.81
2017-10-19T01:08:37.680Z,1006.81
2017-10-19T01:09:03.796Z,1006.77
2017-10-19T01:09:29.924Z,1006.81
2017-10-19T01:09:56.044Z,1006.8
2017-10-19T01:10:22.168Z,1006.81
2017-10-19T01:10:48.295Z,1006.79
2017-10-19T01:11:14.416Z,1006.8
2017-10-19T01:11:40.540Z,1006.79
2017-10-19T01:12:06.659Z,1006.78
2017-10-19T01:12:32.778Z,1006.78
2017-10-19T01:12:58.910Z,1006.76
2017-10-19T01:13:25.036Z,1006.76
2017-10-19T01:13:51.152Z,1006.77
2017-10-19T01:14:17.274Z,1006.78
2017-10-19T01:14:43.404Z,1006.73
2017-10-19T01:15:09.519Z,1006.73
2017-10-19T01:15:35.644Z,1006.76
2017-10-19T01:16:01.769Z,1006.74
2017-10-19T01:16:27.908Z,1006.72
2017-10-19T01:16:54.025Z,1006.75
2017-10-19T01:17:20.147Z,1006.74
2017-10-19T01:17:46.270Z,1006.74
2017-10-19T01:18:12.388Z,1006.75
2017-10-19T01:18:38.512Z,1006.79
2017-10-19T01:19:04.642Z,1006.75
2017-10-19T01:19:30.767Z,1006.77
2017-10-19T01:19:56.885Z,1006.72
2017-10-19T01:20:23.006Z,1006.74
2017-10-19T01:20:49.133Z,1006.76
2017-10-19T01:21:15.252Z,1006.77
2017-10-19T01:21:41.380Z,1006.72
2017-10-19T01:22:07.502Z,1006.74
2017-10-19T01:22:33.623Z,1006.69
2017-10-19T01:22:59.741Z,1006.71
2017-10-19T01:23:25.870Z,1006.74
2017-10-19T01:23:52.014Z,1006.75
2017-10-19T01:24:18.157Z,1006.71
2017-10-19T01:24:44.280Z,1006.75
2017-10-19T01:25:10.399Z,1006.69
2017-10-19T01:25:36.519Z,1006.73
2017-10-19T01:26:02.648Z,1006.73
2017-10-19T01:26:28.765Z,1006.7
2017-10-19T01:26:54.891Z,1006.67
2017-10-19T01:27:21.008Z,1006.65
2017-10-19T01:27:47.136Z,1006.66
2017-10-19T01:28:13.255Z,1006.67
2017-10-19T01:28:39.384Z,1006.65
2017-10-19T01:29:05.506Z,1006.64
2017-10-19T01:29:31.624Z,1006.64
2017-10-19T01:29:57.752Z,1006.64
2017-10-19T01:30:23.873Z,1006.64
2017-10-19T01:30:49.993Z,1006.6
2017-10-19T01:31:16.109Z,1006.66
2017-10-19T01:31:42.235Z,1006.63
2017-10-19T01:32:08.353Z,1006.63
2017-10-19T01:32:34.483Z,1006.67
2017-10-19T01:33:00.607Z,1006.64
2017-10-19T01:33:26.732Z,1006.65
2017-10-19T01:33:52.852Z,1006.62
2017-10-19T01:34:18.970Z,1006.6
2017-10-19T01:34:45.096Z,1006.65
2017-10-19T01:35:11.212Z,1006.6
2017-10-19T01:35:37.344Z,1006.62
2017-10-19T01:36:03.491Z,1006.61
2017-10-19T01:36:29.605Z,1006.6
2017-10-19T01:36:55.727Z,1006.61
2017-10-19T01:37:21.851Z,1006.61
2017-10-19T01:37:47.975Z,1006.57
2017-10-19T01:38:14.103Z,1006.61
2017-10-19T01:38:40.227Z,1006.6
2017-10-19T01:39:06.345Z,1006.56
2017-10-19T01:39:32.469Z,1006.59
2017-10-19T01:39:58.588Z,1006.55
2017-10-19T01:40:24.709Z,1006.56
2017-10-19T01:40:50.834Z,1006.54
2017-10-19T01:41:16.955Z,1006.54
2017-10-19T01:41:43.084Z,1006.55
2017-10-19T01:42:09.202Z,1006.54
2017-10-19T01:42:35.329Z,1006.53
2017-10-19T01:43:01.453Z,1006.55
2017-10-19T01:43:27.570Z,1006.53
2017-10-19T01:43:53.696Z,1006.54
2017-10-19T01:44:19.818Z,1006.57
2017-10-19T01:44:45.936Z,1006.53
2017-10-19T01:45:12.062Z,1006.57
2017-10-19T01:45:38.180Z,1006.57
2017-10-19T01:46:04.307Z,1006.51
2017-10-19T01:46:30.432Z,1006.53
2017-10-19T01:46:56.555Z,1006.53
2017-10-19T01:47:22.672Z,1006.54
2017-10-19T01:47:48.802Z,1006.58
2017-10-19T01:48:14.924Z,1006.57
2017-10-19T01:48:41.046Z,1006.52
2017-10-19T01:49:07.169Z,1006.55
2017-10-19T01:49:33.288Z,1006.56
2017-10-19T01:49:59.415Z,1006.56
2017-10-19T01:50:25.536Z,1006.54
2017-10-19T01:50:51.660Z,1006.58
2017-10-19T01:51:17.779Z,1006.6
2017-10-19T01:51:43.906Z,1006.56
2017-10-19T01:52:10.026Z,1006.55
2017-10-19T01:52:36.166Z,1006.53
2017-10-19T01:53:02.293Z,1006.55
2017-10-19T01:53:28.416Z,1006.53
2017-10-19T01:53:54.541Z,1006.55
2017-10-19T01:54:20.676Z,1006.54
2017-10-19T01:54:46.799Z,1006.55
2017-10-19T01:55:12.917Z,1006.55
2017-10-19T01:55:39.045Z,1006.54
2017-10-19T01:56:05.190Z,1006.53
2017-10-19T01:56:31.319Z,1006.55
2017-10-19T01:56:57.435Z,1006.54
2017-10-19T01:57:23.556Z,1006.53
2017-10-19T01:57:49.677Z,1006.52
2017-10-19T01:58:15.798Z,1006.55
2017-10-19T01:58:41.919Z,1006.51
2017-10-19T01:59:08.036Z,1006.5
2017-10-19T01:59:34.158Z,1006.51
2017-10-19T02:00:00.309Z,1006.51
2017-10-19T02:00:26.426Z,1006.5
2017-10-19T02:00:52.550Z,1006.52
2017-10-19T02:01:18.677Z,1006.53
2017-10-19T02:01:44.793Z,1006.53
2017-10-19T02:02:10.913Z,1006.53
2017-10-19T02:02:37.040Z,1006.51
2017-10-19T02:03:03.162Z,1006.51
2017-10-19T02:03:29.291Z,1006.52
2017-10-19T02:03:55.415Z,1006.5
2017-10-19T02:04:21.533Z,1006.51
2017-10-19T02:04:47.652Z,1006.52
2017-10-19T02:05:13.804Z,1006.52
2017-10-19T02:05:39.922Z,1006.54
2017-10-19T02:06:06.048Z,1006.53
2017-10-19T02:06:32.194Z,1006.53
2017-10-19T02:06:58.311Z,1006.5
2017-10-19T02:07:24.435Z,1006.53
2017-10-19T02:07:50.555Z,1006.52
2017-10-19T02:08:16.682Z,1006.52
2017-10-19T02:08:42.804Z,1006.52
2017-10-19T02:09:08.922Z,1006.5
2017-10-19T02:09:35.050Z,1006.5
2017-10-19T02:10:01.185Z,1006.5
2017-10-19T02:10:27.313Z,1006.5
2017-10-19T02:10:53.434Z,1006.53
2017-10-19T02:11:19.550Z,1006.55
2017-10-19T02:11:45.671Z,1006.51
2017-10-19T02:12:11.798Z,1006.52
2017-10-19T02:12:37.925Z,1006.54
2017-10-19T02:13:04.041Z,1006.53
2017-10-19T02:13:30.170Z,1006.56
2017-10-19T02:13:56.288Z,1006.53
2017-10-19T02:14:22.416Z,1006.53
2017-10-19T02:14:48.537Z,1006.53
2017-10-19T02:15:14.675Z,1006.51
2017-10-19T02:15:40.802Z,1006.54
2017-10-19T02:16:06.944Z,1006.51
2017-10-19T02:16:33.070Z,1006.52
2017-10-19T02:16:59.194Z,1006.47
2017-10-19T02:17:25.318Z,1006.52
2017-10-19T02:17:51.448Z,1006.51
2017-10-19T02:18:17.564Z,1006.51
2017-10-19T02:18:43.684Z,1006.49
2017-10-19T02:19:09.839Z,1006.51
2017-10-19T02:19:35.927Z,1006.49
2017-10-19T02:20:02.046Z,1006.49
2017-10-19T02:20:28.177Z,1006.49
2017-10-19T02:20:54.293Z,1006.48
2017-10-19T02:21:20.417Z,1006.51
2017-10-19T02:21:46.546Z,1006.53
2017-10-19T02:22:12.664Z,1006.5
2017-10-19T02:22:38.783Z,1006.51
2017-10-19T02:23:04.910Z,1006.5
2017-10-19T02:23:31.028Z,1006.57
2017-10-19T02:23:57.143Z,1006.53
2017-10-19T02:24:23.275Z,1006.55
2017-10-19T02:24:49.399Z,1006.55
2017-10-19T02:25:15.525Z,1006.52
2017-10-19T02:25:41.640Z,1006.52
2017-10-19T02:26:07.759Z,1006.52
2017-10-19T02:26:33.894Z,1006.54
2017-10-19T02:27:00.006Z,1006.54
2017-10-19T02:27:26.133Z,1006.52
2017-10-19T02:27:52.251Z,1006.56
2017-10-19T02:28:18.377Z,1006.55
2017-10-19T02:28:44.498Z,1006.55
2017-10-19T02:29:10.616Z,1006.55
2017-10-19T02:29:36.745Z,1006.56
2017-10-19T02:30:02.869Z,1006.54
2017-10-19T02:30:28.984Z,1006.58
2017-10-19T02:30:55.103Z,1006.58
2017-10-19T02:31:21.231Z,1006.55
2017-10-19T02:31:47.349Z,1006.61
2017-10-19T02:32:13.472Z,1006.58
2017-10-19T02:32:39.598Z,1006.62
2017-10-19T02:33:05.713Z,1006.58
2017-10-19T02:33:31.835Z,1006.59
2017-10-19T02:33:57.962Z,1006.61
2017-10-19T02:34:24.088Z,1006.58
2017-10-19T02:34:50.208Z,1006.61
2017-10-19T02:35:16.355Z,1006.6
2017-10-19T02:35:42.475Z,1006.62
2017-10-19T02:36:08.594Z,1006.6
2017-10-19T02:36:34.717Z,1006.61
2017-10-19T02:37:00.842Z,1006.62
2017-10-19T02:37:26.963Z,1006.6
2017-10-19T02:37:53.083Z,1006.62
2017-10-19T02:38:19.209Z,1006.59
2017-10-19T02:38:45.328Z,1006.65
2017-10-19T02:39:11.449Z,1006.64
2017-10-19T02:39:37.574Z,1006.62
2017-10-19T02:40:03.689Z,1006.65
2017-10-19T02:40:29.812Z,1006.63
2017-10-19T02:40:55.938Z,1006.68
2017-10-19T02:41:22.059Z,1006.67
2017-10-19T02:41:48.187Z,1006.65
2017-10-19T02:42:14.312Z,1006.65
2017-10-19T02:42:40.440Z,1006.64
2017-10-19T02:43:06.550Z,1006.68
2017-10-19T02:43:32.693Z,1006.62
2017-10-19T02:43:58.814Z,1006.67
2017-10-19T02:44:24.928Z,1006.65
2017-10-19T02:44:51.055Z,1006.67
2017-10-19T02:45:17.175Z,1006.68
2017-10-19T02:45:43.299Z,1006.65
2017-10-19T02:46:09.423Z,1006.66
2017-10-19T02:46:35.542Z,1006.67
2017-10-19T02:47:01.667Z,1006.67
2017-10-19T02:47:27.790Z,1006.64
2017-10-19T02:47:53.908Z,1006.67
2017-10-19T02:48:20.054Z,1006.64
2017-10-19T02:48:46.179Z,1006.64
2017-10-19T02:49:12.304Z,1006.68
2017-10-19T02:49:38.426Z,1006.66
2017-10-19T02:50:04.544Z,1006.69
2017-10-19T02:50:30.667Z,1006.64
2017-10-19T02:50:56.787Z,1006.67
2017-10-19T02:51:22.915Z,1006.66
2017-10-19T02:51:49.061Z,1006.68
2017-10-19T02:52:15.177Z,1006.72
2017-10-19T02:52:41.305Z,1006.71
2017-10-19T02:53:07.426Z,1006.71
2017-10-19T02:53:33.542Z,1006.67
2017-10-19T02:53:59.668Z,1006.68
2017-10-19T02:54:25.797Z,1006.68
2017-10-19T02:54:51.908Z,1006.65
2017-10-19T02:55:18.030Z,1006.65
2017-10-19T02:55:44.158Z,1006.67
2017-10-19T02:56:10.276Z,1006.66
2017-10-19T02:56:36.400Z,1006.65
2017-10-19T02:57:02.541Z,1006.66
2017-10-19T02:57:28.664Z,1006.65
2017-10-19T02:57:54.814Z,1006.63
2017-10-19T02:58:20.931Z,1006.63
2017-10-19T02:58:47.050Z,1006.65
2017-10-19T02:59:13.177Z,1006.62
2017-10-19T02:59:39.301Z,1006.62
2017-10-19T03:00:05.424Z,1006.61
2017-10-19T03:00:31.542Z,1006.61
2017-10-19T03:00:57.672Z,1006.61
2017-10-19T03:01:23.791Z,1006.62
2017-10-19T03:01:49.909Z,1006.62
2017-10-19T03:02:16.036Z,1006.63
2017-10-19T03:02:42.158Z,1006.61
2017-10-19T03:03:08.287Z,1006.57
2017-10-19T03:03:34.408Z,1006.59
2017-10-19T03:04:00.528Z,1006.58
2017-10-19T03:04:26.643Z,1006.59
2017-10-19T03:04:52.766Z,1006.6
2017-10-19T03:05:18.889Z,1006.57
2017-10-19T03:05:45.012Z,1006.58
2017-10-19T03:06:11.141Z,1006.58
2017-10-19T03:06:37.265Z,1006.59
2017-10-19T03:07:03.384Z,1006.6
2017-10-19T03:07:29.512Z,1006.58
2017-10-19T03:07:55.626Z,1006.58
2017-10-19T03:08:21.774Z,1006.61
2017-10-19T03:08:47.890Z,1006.55
2017-10-19T03:09:14.030Z,1006.54
2017-10-19T03:09:40.160Z,1006.55
2017-10-19T03:10:06.278Z,1006.56
2017-10-19T03:10:32.402Z,1006.57
2017-10-19T03:10:58.526Z,1006.58
2017-10-19T03:11:24.647Z,1006.56
2017-10-19T03:11:50.772Z,1006.57
2017-10-19T03:12:16.889Z,1006.51
2017-10-19T03:12:43.013Z,1006.52
2017-10-19T03:13:09.141Z,1006.47
2017-10-19T03:13:35.264Z,1006.51
2017-10-19T03:14:01.382Z,1006.49
2017-10-19T03:14:27.503Z,1006.53
2017-10-19T03:14:53.630Z,1006.48
2017-10-19T03:15:19.750Z,1006.5
2017-10-19T03:15:45.876Z,1006.5
2017-10-19T03:16:11.993Z,1006.51
2017-10-19T03:16:38.117Z,1006.52
2017-10-19T03:17:04.242Z,1006.52
2017-10-19T03:17:30.383Z,1006.5
2017-10-19T03:17:56.509Z,1006.47
2017-10-19T03:18:22.631Z,1006.5
2017-10-19T03:18:48.748Z,1006.49
2017-10-19T03:19:14.879Z,1006.48
2017-10-19T03:19:40.996Z,1006.5
2017-10-19T03:20:07.121Z,1006.45
2017-10-19T03:20:33.245Z,1006.48
2017-10-19T03:20:59.366Z,1006.46
2017-10-19T03:21:25.492Z,1006.5
2017-10-19T03:21:51.607Z,1006.48
2017-10-19T03:22:17.728Z,1006.47
2017-10-19T03:22:43.855Z,1006.5
2017-10-19T03:23:09.980Z,1006.49
2017-10-19T03:23:36.097Z,1006.47
2017-10-19T03:24:02.223Z,1006.49
2017-10-19T03:24:28.343Z,1006.48
2017-10-19T03:24:54.459Z,1006.49
2017-10-19T03:25:20.582Z,1006.47
2017-10-19T03:25:46.710Z,1006.47
2017-10-19T03:26:12.829Z,1006.47
2017-10-19T03:26:38.972Z,1006.47
2017-10-19T03:27:05.099Z,1006.49
2017-10-19T03:27:31.218Z,1006.49
2017-10-19T03:27:57.345Z,1006.44
2017-10-19T03:28:23.468Z,1006.45
2017-10-19T03:28:49.586Z,1006.43
2017-10-19T03:29:15.706Z,1006.48
2017-10-19T03:29:41.833Z,1006.43
2017-10-19T03:30:07.960Z,1006.43
2017-10-19T03:30:34.080Z,1006.43
2017-10-19T03:31:00.203Z,1006.44
2017-10-19T03:31:26.319Z,1006.41
2017-10-19T03:31:52.445Z,1006.44
2017-10-19T03:32:18.564Z,1006.4
2017-10-19T03:32:44.685Z,1006.4
2017-10-19T03:33:10.834Z,1006.43
2017-10-19T03:33:36.957Z,1006.38
2017-10-19T03:34:03.077Z,1006.4
2017-10-19T03:34:29.193Z,1006.41
2017-10-19T03:34:55.327Z,1006.4
2017-10-19T03:35:21.440Z,1006.38
2017-10-19T03:35:47.573Z,1006.39
2017-10-19T03:36:13.690Z,1006.4
2017-10-19T03:36:39.819Z,1006.36
2017-10-19T03:37:05.942Z,1006.36
2017-10-19T03:37:32.054Z,1006.38
2017-10-19T03:37:58.180Z,1006.34
2017-10-19T03:38:24.298Z,1006.37
2017-10-19T03:38:50.441Z,1006.35
2017-10-19T03:39:16.563Z,1006.34
2017-10-19T03:39:42.682Z,1006.33
2017-10-19T03:40:08.812Z,1006.37
2017-10-19T03:40:34.936Z,1006.35
2017-10-19T03:41:01.056Z,1006.32
2017-10-19T03:41:27.180Z,1006.31
2017-10-19T03:41:53.304Z,1006.3
2017-10-19T03:42:19.437Z,1006.3
2017-10-19T03:42:45.552Z,1006.34
2017-10-19T03:43:11.661Z,1006.31
2017-10-19T03:43:37.787Z,1006.31
2017-10-19T03:44:03.908Z,1006.29
2017-10-19T03:44:30.034Z,1006.28
2017-10-19T03:44:56.159Z,1006.25
2017-10-19T03:45:22.275Z,1006.28
2017-10-19T03:45:48.402Z,1006.28
2017-10-19T03:46:14.517Z,1006.3
2017-10-19T03:46:40.640Z,1006.28
2017-10-19T03:47:06.765Z,1006.28
2017-10-19T03:47:32.888Z,1006.27
2017-10-19T03:47:59.002Z,1006.28
2017-10-19T03:48:25.123Z,1006.28
2017-10-19T03:48:51.251Z,1006.25
2017-10-19T03:49:17.370Z,1006.25
2017-10-19T03:49:43.518Z,1006.25
2017-10-19T03:50:09.636Z,1006.25
2017-10-19T03:50:35.764Z,1006.22
2017-10-19T03:51:01.890Z,1006.26
2017-10-19T03:51:28.008Z,1006.25
2017-10-19T03:51:54.156Z,1006.2
2017-10-19T03:52:20.278Z,1006.2
2017-10-19T03:52:46.402Z,1006.22
2017-10-19T03:53:12.533Z,1006.19
2017-10-19T03:53:38.644Z,1006.22
2017-10-19T03:54:04.766Z,1006.25
2017-10-19T03:54:30.912Z,1006.21
2017-10-19T03:54:57.029Z,1006.23
2017-10-19T03:55:23.151Z,1006.2
2017-10-19T03:55:49.277Z,1006.21
2017-10-19T03:56:15.395Z,1006.2
2017-10-19T03:56:41.519Z,1006.21
2017-10-19T03:57:07.632Z,1006.25
2017-10-19T03:57:33.760Z,1006.25
2017-10-19T03:57:59.883Z,1006.26
2017-10-19T03:58:26.026Z,1006.25
2017-10-19T03:58:52.145Z,1006.26
2017-10-19T03:59:18.272Z,1006.27
2017-10-19T03:59:44.396Z,1006.26
2017-10-19T04:00:10.517Z,1006.25
2017-10-19T04:00:36.652Z,1006.27
2017-10-19T04:01:02.766Z,1006.27
2017-10-19T04:01:28.893Z,1006.24
2017-10-19T04:01:55.010Z,1006.27
2017-10-19T04:02:21.128Z,1006.27
2017-10-19T04:02:47.272Z,1006.24
2017-10-19T04:03:13.392Z,1006.25
2017-10-19T04:03:39.513Z,1006.26
2017-10-19T04:04:05.642Z,1006.23
2017-10-19T04:04:31.763Z,1006.25
2017-10-19T04:04:57.884Z,1006.26
2017-10-19T04:05:24.006Z,1006.28
2017-10-19T04:05:50.124Z,1006.25
2017-10-19T04:06:16.252Z,1006.29
2017-10-19T04:06:42.376Z,1006.28
2017-10-19T04:07:08.497Z,1006.26
2017-10-19T04:07:34.618Z,1006.26
2017-10-19T04:08:00.745Z,1006.25
2017-10-19T04:08:26.864Z,1006.24
2017-10-19T04:08:52.990Z,1006.26
2017-10-19T04:09:19.113Z,1006.25
2017-10-19T04:09:45.230Z,1006.28
2017-10-19T04:10:11.358Z,1006.23
2017-10-19T04:10:37.475Z,1006.25
2017-10-19T04:11:03.597Z,1006.25
2017-10-19T04:11:29.724Z,1006.27
2017-10-19T04:11:55.840Z,1006.3
2017-10-19T04:12:21.966Z,1006.28
2017-10-19T04:12:48.084Z,1006.25
2017-10-19T04:13:14.213Z,1006.27
2017-10-19T04:13:40.337Z,1006.27
2017-10-19T04:14:06.455Z,1006.3
2017-10-19T04:14:32.574Z,1006.33
2017-10-19T04:14:58.728Z,1006.31
2017-10-19T04:15:24.826Z,1006.29
2017-10-19T04:15:50.949Z,1006.31
2017-10-19T04:16:17.072Z,1006.3
2017-10-19T04:16:43.189Z,1006.31
2017-10-19T04:17:09.312Z,1006.28
2017-10-19T04:17:35.431Z,1006.29
2017-10-19T04:18:01.558Z,1006.31
2017-10-19T04:18:27.677Z,1006.3
2017-10-19T04:18:53.803Z,1006.27
2017-10-19T04:19:19.919Z,1006.32
2017-10-19T04:19:46.050Z,1006.3
2017-10-19T04:20:12.171Z,1006.31
2017-10-19T04:20:38.288Z,1006.27
2017-10-19T04:21:04.410Z,1006.3
2017-10-19T04:21:30.527Z,1006.32
2017-10-19T04:21:56.654Z,1006.28
2017-10-19T04:22:22.778Z,1006.3
2017-10-19T04:22:48.897Z,1006.31
2017-10-19T04:23:15.024Z,1006.34
2017-10-19T04:23:41.138Z,1006.33
2017-10-19T04:24:07.262Z,1006.34
2017-10-19T04:24:33.383Z,1006.32
2017-10-19T04:24:59.510Z,1006.32
2017-10-19T04:25:25.632Z,1006.33
2017-10-19T04:25:51.765Z,1006.34
2017-10-19T04:26:17.904Z,1006.36
2017-10-19T04:26:44.022Z,1006.37
2017-10-19T04:27:10.148Z,1006.41
2017-10-19T04:27:36.267Z,1006.35
2017-10-19T04:28:02.401Z,1006.35
2017-10-19T04:28:28.508Z,1006.35
2017-10-19T04:28:54.636Z,1006.36
2017-10-19T04:29:20.760Z,1006.36
2017-10-19T04:29:46.879Z,1006.31
2017-10-19T04:30:13.004Z,1006.34
2017-10-19T04:30:39.125Z,1006.33
2017-10-19T04:31:05.247Z,1006.32
2017-10-19T04:31:31.366Z,1006.31
2017-10-19T04:31:57.488Z,1006.27
2017-10-19T04:32:23.615Z,1006.3
2017-10-19T04:32:49.740Z,1006.28
2017-10-19T04:33:15.857Z,1006.28
2017-10-19T04:33:41.978Z,1006.28
2017-10-19T04:34:08.107Z,1006.28
2017-10-19T04:34:34.226Z,1006.29
2017-10-19T04:35:00.348Z,1006.28
2017-10-19T04:35:26.469Z,1006.3
2017-10-19T04:35:52.595Z,1006.29
2017-10-19T04:36:18.719Z,1006.29
2017-10-19T04:36:44.863Z,1006.33
2017-10-19T04:37:10.965Z,1006.29
2017-10-19T04:37:37.083Z,1006.35
2017-10-19T04:38:03.204Z,1006.32
2017-10-19T04:38:29.326Z,1006.33
2017-10-19T04:38:55.444Z,1006.34
2017-10-19T04:39:21.572Z,1006.33
2017-10-19T04:39:47.697Z,1006.37
2017-10-19T04:40:13.815Z,1006.34
2017-10-19T04:40:39.929Z,1006.34
2017-10-19T04:41:06.056Z,1006.35
2017-10-19T04:41:32.174Z,1006.36
2017-10-19T04:41:58.293Z,1006.35
2017-10-19T04:42:24.422Z,1006.37
2017-10-19T04:42:50.542Z,1006.34
2017-10-19T04:43:16.673Z,1006.37
2017-10-19T04:43:42.802Z,1006.33
2017-10-19T04:44:08.921Z,1006.32
2017-10-19T04:44:35.049Z,1006.35
2017-10-19T04:45:01.173Z,1006.31
2017-10-19T04:45:27.299Z,1006.32
2017-10-19T04:45:53.425Z,1006.39
2017-10-19T04:46:19.539Z,1006.33
2017-10-19T04:46:45.662Z,1006.34
2017-10-19T04:47:11.781Z,1006.38
2017-10-19T04:47:37.902Z,1006.38
2017-10-19T04:48:04.025Z,1006.37
2017-10-19T04:48:30.146Z,1006.36
2017-10-19T04:48:56.276Z,1006.37
2017-10-19T04:49:22.418Z,1006.39
2017-10-19T04:49:48.540Z,1006.38
2017-10-19T04:50:14.662Z,1006.36
2017-10-19T04:50:40.792Z,1006.36
2017-10-19T04:51:06.929Z,1006.41
2017-10-19T04:51:33.073Z,1006.36
2017-10-19T04:51:59.204Z,1006.33
2017-10-19T04:52:25.320Z,1006.36
2017-10-19T04:52:51.437Z,1006.36
2017-10-19T04:53:17.567Z,1006.32
2017-10-19T04:53:43.710Z,1006.3
2017-10-19T04:54:09.833Z,1006.31
2017-10-19T04:54:35.973Z,1006.28
2017-10-19T04:55:02.092Z,1006.26
2017-10-19T04:55:28.216Z,1006.27
2017-10-19T04:55:54.333Z,1006.26
2017-10-19T04:56:20.462Z,1006.24
2017-10-19T04:56:46.581Z,1006.23
2017-10-19T04:57:12.707Z,1006.26
2017-10-19T04:57:38.828Z,1006.24
2017-10-19T04:58:04.955Z,1006.26
2017-10-19T04:58:31.097Z,1006.22
2017-10-19T04:58:57.220Z,1006.21
2017-10-19T04:59:23.336Z,1006.24
2017-10-19T04:59:49.485Z,1006.24
2017-10-19T05:00:15.607Z,1006.22
2017-10-19T05:00:41.729Z,1006.23
2017-10-19T05:01:07.848Z,1006.25
2017-10-19T05:01:33.976Z,1006.26
2017-10-19T05:02:00.095Z,1006.23
2017-10-19T05:02:26.221Z,1006.25
2017-10-19T05:02:52.333Z,1006.24
2017-10-19T05:03:18.462Z,1006.29
2017-10-19T05:03:44.586Z,1006.28
2017-10-19T05:04:10.709Z,1006.22
2017-10-19T05:04:36.829Z,1006.25
2017-10-19T05:05:02.953Z,1006.24
2017-10-19T05:05:29.072Z,1006.26
2017-10-19T05:05:55.195Z,1006.28
2017-10-19T05:06:21.318Z,1006.26
2017-10-19T05:06:47.444Z,1006.26
2017-10-19T05:07:13.561Z,1006.28
2017-10-19T05:07:39.684Z,1006.24
2017-10-19T05:08:05.801Z,1006.24
2017-10-19T05:08:31.934Z,1006.27
2017-10-19T05:08:58.055Z,1006.28
2017-10-19T05:09:24.172Z,1006.28
2017-10-19T05:09:50.298Z,1006.28
2017-10-19T05:10:16.446Z,1006.27
2017-10-19T05:10:42.581Z,1006.26
2017-10-19T05:11:08.746Z,1006.26
2017-10-19T05:11:34.870Z,1006.27
2017-10-19T05:12:00.993Z,1006.3
2017-10-19T05:12:27.111Z,1006.27
2017-10-19T05:12:53.232Z,1006.27
2017-10-19T05:13:19.349Z,1006.26
2017-10-19T05:13:45.473Z,1006.31
2017-10-19T05:14:11.599Z,1006.27
2017-10-19T05:14:37.724Z,1006.29
2017-10-19T05:15:03.838Z,1006.29
2017-10-19T05:15:29.965Z,1006.28
2017-10-19T05:15:56.084Z,1006.28
2017-10-19T05:16:22.231Z,1006.29
2017-10-19T05:16:48.354Z,1006.25
2017-10-19T05:17:14.472Z,1006.27